Time;durP1;ratioP1;P1;durP2;ratioP2;P2;SDS_P1;SDS_P2;PMS_P1;PMS_P2;Temp;Humidity;BMP_temperature;BMP_pressure;BME280_temperature;BME280_humidity;BME280_pressure;Samples;Min_cycle;Max_cycle;Signal;HPM_P1;HPM_P2
2022/12/19 00:00:03;;;;;;;66.85;35.97;;;-0.50;99.90;;;;;;5021134;28;20222;-78
2022/12/19 00:02:48;;;;;;;67.15;36.95;;;-0.60;99.90;;;;;;5002796;28;20223;-79
2022/12/19 00:05:37;;;;;;;64.30;36.67;;;-0.60;99.90;;;;;;5017746;28;20237;-78
2022/12/19 00:08:25;;;;;;;54.67;32.28;;;-0.50;99.90;;;;;;5027468;28;20202;-79
2022/12/19 00:11:12;;;;;;;66.15;36.67;;;-0.60;99.90;;;;;;5028184;28;20221;-78
2022/12/19 00:13:58;;;;;;;63.67;36.60;;;-0.60;99.90;;;;;;5011288;28;20270;-78
2022/12/19 00:16:44;;;;;;;66.95;36.42;;;-0.50;99.90;;;;;;5012330;28;20206;-78
2022/12/19 00:19:30;;;;;;;64.65;34.75;;;-0.50;99.90;;;;;;5019934;28;20274;-79
2022/12/19 00:22:18;;;;;;;64.18;35.45;;;-0.50;99.90;;;;;;5020661;28;20341;-78
2022/12/19 00:25:06;;;;;;;65.68;35.20;;;-0.40;99.90;;;;;;5009367;28;20225;-79
2022/12/19 00:27:52;;;;;;;60.50;33.88;;;-0.40;99.90;;;;;;5007002;28;20206;-78
2022/12/19 00:30:37;;;;;;;60.42;34.33;;;-0.30;99.90;;;;;;5005190;28;20293;-78
2022/12/19 00:33:23;;;;;;;61.90;35.40;;;-0.20;99.90;;;;;;5012890;28;20276;-78
2022/12/19 00:36:13;;;;;;;69.03;37.03;;;-0.30;99.90;;;;;;5010195;28;20214;-78
2022/12/19 00:39:01;;;;;;;65.45;35.20;;;-0.30;99.90;;;;;;5000986;28;20226;-78
2022/12/19 00:41:47;;;;;;;72.38;35.42;;;-0.20;99.90;;;;;;5010419;28;20306;-78
2022/12/19 00:44:33;;;;;;;67.50;40.17;;;-0.30;99.90;;;;;;5012188;28;20714;-78
2022/12/19 00:47:19;;;;;;;71.43;40.38;;;-0.30;99.90;;;;;;5006865;28;20198;-77
2022/12/19 00:50:05;;;;;;;78.50;43.30;;;-0.20;99.90;;;;;;5016692;28;20325;-78
2022/12/19 00:52:51;;;;;;;70.65;41.70;;;-0.20;99.90;;;;;;5009609;28;20312;-78
2022/12/19 00:55:38;;;;;;;78.65;43.00;;;-0.30;99.90;;;;;;5003635;28;20673;-78
2022/12/19 00:58:26;;;;;;;64.47;38.90;;;-0.30;99.90;;;;;;5017270;28;20217;-78
2022/12/19 01:01:14;;;;;;;71.50;40.28;;;-0.30;99.90;;;;;;4998028;28;20227;-78
2022/12/19 01:04:01;;;;;;;75.57;40.42;;;-0.30;99.90;;;;;;5008680;28;20206;-78
2022/12/19 01:06:47;;;;;;;70.25;41.45;;;-0.30;99.90;;;;;;4999771;28;20696;-78
2022/12/19 01:09:33;;;;;;;68.05;39.55;;;-0.40;99.90;;;;;;5022682;28;20687;-78
2022/12/19 01:15:24;;;;;;;73.65;37.85;;;-0.30;99.90;;;;;;5008020;28;20566;-78
2022/12/19 01:18:11;;;;;;;73.72;37.80;;;-0.30;99.90;;;;;;5001046;28;20654;-78
2022/12/19 01:21:00;;;;;;;70.13;40.13;;;-0.30;99.90;;;;;;5010376;28;20237;-78
2022/12/19 01:23:46;;;;;;;72.15;38.30;;;-0.20;99.90;;;;;;4998356;28;20202;-78
2022/12/19 01:26:32;;;;;;;67.65;37.35;;;-0.20;99.90;;;;;;5012145;28;20693;-78
2022/12/19 01:29:18;;;;;;;77.20;40.13;;;-0.30;99.90;;;;;;5007123;28;20208;-78
2022/12/19 01:32:05;;;;;;;63.78;37.13;;;-0.20;99.90;;;;;;4997990;28;20855;-78
2022/12/19 01:34:51;;;;;;;62.78;37.40;;;-0.20;99.90;;;;;;5023983;28;20215;-78
2022/12/19 01:37:36;;;;;;;58.92;34.47;;;-0.10;99.90;;;;;;5012250;28;20214;-78
2022/12/19 01:40:23;;;;;;;62.83;36.55;;;-0.20;99.90;;;;;;5004839;28;20206;-78
2022/12/19 01:43:13;;;;;;;71.25;40.35;;;-0.30;99.90;;;;;;5008713;28;20253;-78
2022/12/19 01:46:02;;;;;;;69.25;37.88;;;-0.40;99.90;;;;;;5031785;28;20786;-78
2022/12/19 01:48:49;;;;;;;64.35;37.70;;;-0.30;99.90;;;;;;5026034;28;20195;-78
2022/12/19 01:51:40;;;;;;;63.40;37.22;;;-0.30;99.90;;;;;;5016831;28;20377;-77
2022/12/19 01:54:29;;;;;;;75.05;39.33;;;-0.20;99.90;;;;;;5009621;28;20207;-78
2022/12/19 01:57:17;;;;;;;66.22;37.50;;;-0.20;99.90;;;;;;5019819;28;20281;-78
2022/12/19 02:00:03;;;;;;;65.20;36.17;;;-0.20;99.90;;;;;;5019196;28;20750;-78
2022/12/19 02:02:56;;;;;;;62.92;36.03;;;-0.10;99.90;;;;;;5010550;28;20307;-78
2022/12/19 02:05:44;;;;;;;66.18;36.28;;;-0.10;99.90;;;;;;5004769;28;20211;-78
2022/12/19 02:08:31;;;;;;;61.03;36.95;;;0.00;99.90;;;;;;5006831;28;20190;-78
2022/12/19 02:11:16;;;;;;;65.30;35.80;;;0.00;99.90;;;;;;5016784;28;20320;-78
2022/12/19 02:14:02;;;;;;;68.97;36.78;;;0.00;99.90;;;;;;5021097;28;20267;-78
2022/12/19 02:16:54;;;;;;;63.22;36.17;;;0.00;99.90;;;;;;5021101;28;20258;-78
2022/12/19 02:20:07;;;;;;;60.55;35.63;;;0.00;99.90;;;;;;5019564;28;20354;-79
2022/12/19 02:23:14;;;;;;;65.53;37.78;;;0.00;99.90;;;;;;5003136;28;20752;-78
2022/12/19 02:26:22;;;;;;;68.32;35.85;;;0.10;99.90;;;;;;5015334;28;20206;-78
2022/12/19 02:29:46;;;;;;;65.28;35.85;;;0.10;99.90;;;;;;5018932;28;20210;-79
2022/12/19 02:32:41;;;;;;;63.40;36.67;;;0.10;99.90;;;;;;5009607;28;20230;-78
2022/12/19 02:35:33;;;;;;;65.40;34.85;;;0.10;99.90;;;;;;5014736;28;20253;-78
2022/12/19 02:38:27;;;;;;;63.83;35.88;;;0.20;99.90;;;;;;5019291;28;20225;-79
2022/12/19 02:41:21;;;;;;;59.03;34.75;;;0.10;99.90;;;;;;5018512;28;20226;-78
2022/12/19 02:44:07;;;;;;;68.93;35.78;;;0.10;99.90;;;;;;5006534;28;20207;-78
2022/12/19 02:46:53;;;;;;;57.60;36.60;;;0.20;99.90;;;;;;4999178;28;20230;-78
2022/12/19 02:49:40;;;;;;;58.92;34.30;;;0.30;99.90;;;;;;4998987;28;20736;-78
2022/12/19 02:52:50;;;;;;;64.50;34.88;;;0.40;99.90;;;;;;5005128;28;20281;-78
2022/12/19 02:55:42;;;;;;;61.47;33.17;;;0.40;99.90;;;;;;5006527;28;20203;-78
2022/12/19 02:58:51;;;;;;;69.43;34.30;;;0.40;99.90;;;;;;5034650;28;20246;-78
2022/12/19 03:01:44;;;;;;;55.05;31.83;;;0.40;99.90;;;;;;5021167;28;20258;-78
2022/12/19 03:04:39;;;;;;;62.28;31.95;;;0.40;99.90;;;;;;4999102;28;20239;-77
2022/12/19 03:07:34;;;;;;;59.22;31.70;;;0.50;99.90;;;;;;5016011;28;20213;-77
2022/12/19 03:10:29;;;;;;;65.80;34.55;;;0.50;99.90;;;;;;5011333;28;20279;-77
2022/12/19 03:13:19;;;;;;;68.85;36.53;;;0.40;99.90;;;;;;5007003;28;20210;-77
2022/12/19 03:16:07;;;;;;;70.13;38.42;;;0.30;99.90;;;;;;5014092;28;20205;-77
2022/12/19 03:18:54;;;;;;;65.72;37.20;;;0.30;99.90;;;;;;5006806;28;20295;-78
2022/12/19 03:21:42;;;;;;;64.75;39.92;;;0.20;99.90;;;;;;5007837;28;20702;-78
2022/12/19 03:24:29;;;;;;;74.47;42.70;;;0.20;99.90;;;;;;5013961;28;20214;-77
2022/12/19 03:27:20;;;;;;;69.18;41.65;;;0.30;99.90;;;;;;4998667;28;20213;-77
2022/12/19 03:30:10;;;;;;;74.00;42.17;;;0.30;99.90;;;;;;4999771;28;20210;-78
2022/12/19 03:32:56;;;;;;;74.05;39.08;;;0.30;99.90;;;;;;5016180;28;20202;-78
2022/12/19 03:35:45;;;;;;;68.10;39.28;;;0.30;99.90;;;;;;5016685;28;20253;-78
2022/12/19 03:38:32;;;;;;;65.53;38.30;;;0.30;99.90;;;;;;5019585;28;20222;-78
2022/12/19 03:43:07;;;;;;;73.25;41.30;;;0.30;99.90;;;;;;5020202;28;20268;-78
2022/12/19 03:44:30;;;;;;;68.18;37.50;;;0.30;99.90;;;;;;5020345;28;20300;-79
2022/12/19 03:47:21;;;;;;;58.30;36.33;;;0.40;99.90;;;;;;5015508;28;20206;-78
2022/12/19 03:50:08;;;;;;;69.32;37.03;;;0.40;99.90;;;;;;5016077;28;20206;-78
2022/12/19 03:53:01;;;;;;;65.32;38.05;;;0.40;99.90;;;;;;5015782;28;20306;-78
2022/12/19 03:55:54;;;;;;;64.50;37.60;;;0.50;99.90;;;;;;5023244;28;20283;-78
2022/12/19 03:58:48;;;;;;;61.92;33.55;;;0.40;99.90;;;;;;5025334;28;20285;-79
2022/12/19 04:01:35;;;;;;;62.97;35.88;;;0.60;99.90;;;;;;5011772;28;20245;-77
2022/12/19 04:04:22;;;;;;;58.13;34.60;;;0.60;99.90;;;;;;5026193;28;20349;-77
2022/12/19 04:07:10;;;;;;;64.30;33.83;;;0.50;99.90;;;;;;5022682;28;20202;-77
2022/12/19 04:09:58;;;;;;;58.42;34.75;;;0.60;99.90;;;;;;5022745;28;20216;-78
2022/12/19 04:12:50;;;;;;;66.38;36.92;;;0.60;99.90;;;;;;5011613;28;20783;-79
2022/12/19 04:15:47;;;;;;;62.25;34.40;;;0.60;99.90;;;;;;5019467;28;20725;-78
2022/12/19 04:18:33;;;;;;;63.15;35.40;;;0.60;99.90;;;;;;5036456;28;20213;-78
2022/12/19 04:21:24;;;;;;;65.57;38.45;;;0.70;99.90;;;;;;5007789;28;20453;-78
2022/12/19 04:24:15;;;;;;;61.00;37.40;;;0.70;99.90;;;;;;5016074;28;20206;-77
2022/12/19 04:27:03;;;;;;;68.80;37.83;;;0.70;99.90;;;;;;4999214;28;20658;-79
2022/12/19 04:29:55;;;;;;;64.75;37.53;;;0.60;99.90;;;;;;5001455;28;20263;-78
2022/12/19 04:32:42;;;;;;;65.75;36.03;;;0.60;99.90;;;;;;5011950;28;20237;-78
2022/12/19 04:35:28;;;;;;;61.67;36.30;;;0.70;99.90;;;;;;5022306;28;20213;-78
2022/12/19 04:38:14;;;;;;;68.10;36.70;;;0.70;99.90;;;;;;5021504;28;20261;-78
2022/12/19 04:41:03;;;;;;;60.70;37.33;;;0.70;99.90;;;;;;5018103;28;20227;-78
2022/12/19 04:43:48;;;;;;;57.25;33.60;;;0.70;99.90;;;;;;5007691;28;20207;-78
2022/12/19 04:46:38;;;;;;;57.75;34.88;;;0.70;99.90;;;;;;5008859;28;20206;-78
2022/12/19 04:49:26;;;;;;;60.20;35.30;;;0.80;99.90;;;;;;5031289;28;20198;-77
2022/12/19 04:52:11;;;;;;;66.20;35.28;;;0.80;99.90;;;;;;5017104;28;20702;-78
2022/12/19 04:54:57;;;;;;;54.08;30.77;;;0.80;99.90;;;;;;5025460;28;20226;-78
2022/12/19 04:57:43;;;;;;;51.63;30.67;;;0.80;99.90;;;;;;5020196;28;20270;-79
2022/12/19 05:00:28;;;;;;;58.92;35.15;;;0.70;99.90;;;;;;5018269;28;20229;-78
2022/12/19 05:03:14;;;;;;;61.50;34.38;;;0.70;99.90;;;;;;5018696;28;20257;-78
2022/12/19 05:06:06;;;;;;;61.03;34.97;;;0.80;99.90;;;;;;5026319;28;20337;-78
2022/12/19 05:08:52;;;;;;;50.95;30.02;;;0.80;99.90;;;;;;5028202;28;20577;-78
2022/12/19 05:11:38;;;;;;;58.30;31.52;;;0.80;99.90;;;;;;5012991;28;20587;-78
2022/12/19 05:14:24;;;;;;;52.85;31.80;;;0.90;99.90;;;;;;5026402;28;20627;-78
2022/12/19 05:17:09;;;;;;;53.15;31.35;;;0.90;99.90;;;;;;5016583;28;20225;-78
2022/12/19 05:19:55;;;;;;;55.42;32.97;;;0.90;99.90;;;;;;5016240;28;20342;-78
2022/12/19 05:22:42;;;;;;;50.38;31.33;;;0.90;99.90;;;;;;5014293;28;20230;-78
2022/12/19 05:25:27;;;;;;;56.83;31.25;;;0.90;99.90;;;;;;5020046;28;20257;-78
2022/12/19 05:28:14;;;;;;;60.30;32.35;;;0.90;99.90;;;;;;5015448;28;20346;-78
2022/12/19 05:31:04;;;;;;;64.20;34.83;;;0.90;99.90;;;;;;5003416;28;20223;-78
2022/12/19 05:33:50;;;;;;;59.35;33.03;;;0.90;99.90;;;;;;5002292;28;20269;-78
2022/12/19 05:36:35;;;;;;;65.90;35.90;;;0.90;99.90;;;;;;5016727;28;20194;-78
2022/12/19 05:39:23;;;;;;;59.92;32.72;;;1.00;99.90;;;;;;5011917;28;20572;-78
2022/12/19 05:42:08;;;;;;;60.45;35.10;;;1.10;99.90;;;;;;5028114;28;20241;-78
2022/12/19 05:44:54;;;;;;;64.47;36.40;;;1.10;99.90;;;;;;5019907;28;20283;-77
2022/12/19 05:47:41;;;;;;;61.17;34.97;;;1.10;99.90;;;;;;5017831;28;20348;-78
2022/12/19 05:50:27;;;;;;;60.53;36.00;;;1.10;99.90;;;;;;5015307;28;20246;-79
2022/12/19 05:53:13;;;;;;;66.22;36.08;;;1.10;99.90;;;;;;5026795;28;20214;-78
2022/12/19 05:56:09;;;;;;;65.32;35.40;;;1.10;99.90;;;;;;5022217;28;20574;-78
2022/12/19 05:58:55;;;;;;;59.72;34.83;;;1.00;99.90;;;;;;5027126;28;20683;-78
2022/12/19 06:01:42;;;;;;;51.95;34.80;;;1.00;99.90;;;;;;5019457;28;20248;-78
2022/12/19 06:04:29;;;;;;;56.90;34.75;;;1.00;99.90;;;;;;5029535;28;20249;-78
2022/12/19 06:07:15;;;;;;;61.13;37.25;;;1.00;99.90;;;;;;5016602;28;20217;-78
2022/12/19 06:10:02;;;;;;;56.90;33.90;;;1.00;99.90;;;;;;5021214;28;20845;-78
2022/12/19 06:12:50;;;;;;;57.28;33.58;;;1.10;99.90;;;;;;5020868;28;20692;-78
2022/12/19 06:15:35;;;;;;;58.40;33.53;;;1.10;99.90;;;;;;5017768;28;20333;-78
2022/12/19 06:18:21;;;;;;;56.40;33.55;;;1.10;99.90;;;;;;5030294;28;20296;-78
2022/12/19 06:21:10;;;;;;;64.57;33.25;;;1.10;99.90;;;;;;5010515;28;21809;-78
2022/12/19 06:23:56;;;;;;;57.47;33.78;;;1.10;99.90;;;;;;5023945;28;20245;-78
2022/12/19 06:26:41;;;;;;;58.63;34.60;;;1.10;99.90;;;;;;5018110;28;20210;-77
2022/12/19 06:29:29;;;;;;;72.80;38.97;;;1.10;99.90;;;;;;5013858;28;20194;-78
2022/12/19 06:32:14;;;;;;;71.38;40.42;;;1.10;99.90;;;;;;5022760;28;20225;-78
2022/12/19 06:35:00;;;;;;;64.18;37.22;;;1.00;99.90;;;;;;5009578;28;20209;-78
2022/12/19 06:37:48;;;;;;;61.92;35.88;;;1.10;99.90;;;;;;5017943;28;20209;-78
2022/12/19 06:43:45;;;;;;;62.60;36.40;;;1.00;99.90;;;;;;5019029;28;20220;-78
2022/12/19 06:46:32;;;;;;;58.22;34.92;;;1.00;99.90;;;;;;5014326;28;20292;-77
2022/12/19 06:49:18;;;;;;;67.50;34.92;;;1.10;99.90;;;;;;5020404;28;20569;-77
2022/12/19 06:52:04;;;;;;;53.70;33.13;;;1.10;99.90;;;;;;5017339;28;20304;-78
2022/12/19 06:54:50;;;;;;;60.70;37.10;;;1.10;99.90;;;;;;5018927;28;20216;-78
2022/12/19 06:57:36;;;;;;;54.13;32.65;;;1.10;99.90;;;;;;5024643;28;20281;-79
2022/12/19 07:00:22;;;;;;;59.63;33.25;;;1.20;99.90;;;;;;5009970;28;20238;-79
2022/12/19 07:03:12;;;;;;;65.53;36.55;;;1.20;99.90;;;;;;5028399;28;20205;-78
2022/12/19 07:05:57;;;;;;;52.58;32.20;;;1.30;99.90;;;;;;5022280;28;20197;-78
2022/12/19 07:08:43;;;;;;;59.40;37.15;;;1.20;99.90;;;;;;5008169;28;20214;-78
2022/12/19 07:11:29;;;;;;;62.50;37.78;;;1.20;99.90;;;;;;5025403;28;20234;-79
2022/12/19 07:14:14;;;;;;;58.45;37.95;;;1.20;99.90;;;;;;5031256;28;20306;-78
2022/12/19 07:17:02;;;;;;;60.10;37.10;;;1.30;99.90;;;;;;5030047;28;20205;-78
2022/12/19 07:19:49;;;;;;;64.82;37.30;;;1.30;99.90;;;;;;5007144;28;20222;-79
2022/12/19 07:22:36;;;;;;;66.97;37.15;;;1.30;99.90;;;;;;5018071;28;20229;-79
2022/12/19 07:25:21;;;;;;;59.55;35.63;;;1.40;99.90;;;;;;5018647;28;20206;-79
2022/12/19 07:28:07;;;;;;;72.68;35.40;;;1.30;99.90;;;;;;5019779;28;20209;-78
2022/12/19 07:30:53;;;;;;;59.50;35.00;;;1.30;99.90;;;;;;5012992;28;20242;-79
2022/12/19 07:33:39;;;;;;;89.80;43.83;;;1.20;99.90;;;;;;5018125;28;20229;-79
2022/12/19 07:36:26;;;;;;;72.72;39.65;;;1.20;99.90;;;;;;5019123;28;20577;-79
2022/12/19 07:39:12;;;;;;;63.33;38.72;;;1.20;99.90;;;;;;5016232;28;20289;-78
2022/12/19 07:41:59;;;;;;;63.45;35.80;;;1.20;99.90;;;;;;5022994;28;20218;-78
2022/12/19 07:44:44;;;;;;;69.57;37.22;;;1.30;99.90;;;;;;5018793;28;20710;-78
2022/12/19 07:47:30;;;;;;;63.10;35.15;;;1.40;99.90;;;;;;5028128;28;20683;-78
2022/12/19 07:50:16;;;;;;;69.05;32.78;;;1.50;99.90;;;;;;5015994;28;20281;-79
2022/12/19 07:53:03;;;;;;;57.63;32.60;;;1.50;99.90;;;;;;5045651;22;20237;-75
2022/12/19 07:55:50;;;;;;;59.53;32.65;;;1.50;99.90;;;;;;5020069;28;20252;-75
2022/12/19 07:58:36;;;;;;;63.28;34.83;;;1.60;99.90;;;;;;5022211;28;20778;-75
2022/12/19 08:01:22;;;;;;;64.65;33.88;;;1.60;99.90;;;;;;5025127;28;20737;-75
2022/12/19 08:04:07;;;;;;;58.95;33.88;;;1.60;99.90;;;;;;5009241;28;20206;-75
2022/12/19 08:06:53;;;;;;;57.22;33.25;;;1.60;99.90;;;;;;5011964;28;20250;-76
2022/12/19 08:09:40;;;;;;;62.58;34.08;;;1.60;99.90;;;;;;5001681;28;20684;-75
2022/12/19 08:12:26;;;;;;;58.22;35.30;;;1.60;99.90;;;;;;5011842;28;20222;-75
2022/12/19 08:15:12;;;;;;;73.35;37.75;;;1.70;99.90;;;;;;4991609;28;20202;-75
2022/12/19 08:17:57;;;;;;;63.92;38.13;;;1.70;99.90;;;;;;5003084;28;20222;-75
2022/12/19 08:20:46;;;;;;;64.65;37.70;;;1.70;99.90;;;;;;5006867;28;20244;-76
2022/12/19 08:23:32;;;;;;;60.58;33.65;;;1.70;99.90;;;;;;5010526;28;20210;-75
2022/12/19 08:26:23;;;;;;;55.38;33.72;;;1.80;99.90;;;;;;5008603;28;20210;-75
2022/12/19 08:29:09;;;;;;;57.60;31.80;;;1.80;99.90;;;;;;5005303;28;20314;-75
2022/12/19 08:31:55;;;;;;;52.30;30.60;;;1.80;99.90;;;;;;5009394;28;20586;-76
2022/12/19 08:34:41;;;;;;;57.85;32.85;;;1.80;99.90;;;;;;5001897;28;20571;-75
2022/12/19 08:37:26;;;;;;;53.80;29.35;;;1.80;99.90;;;;;;5009011;28;20214;-75
2022/12/19 08:40:12;;;;;;;53.97;32.30;;;1.90;99.90;;;;;;5004470;28;20246;-76
2022/12/19 08:42:59;;;;;;;60.35;32.78;;;1.90;99.90;;;;;;5004894;28;20226;-74
2022/12/19 08:45:47;;;;;;;71.05;34.55;;;2.00;99.90;;;;;;5000955;28;20194;-74
2022/12/19 08:48:33;;;;;;;55.47;31.15;;;2.00;99.90;;;;;;5004470;28;20221;-74
2022/12/19 08:51:20;;;;;;;58.20;34.67;;;2.00;99.90;;;;;;5006680;28;20250;-74
2022/12/19 08:54:05;;;;;;;58.58;35.47;;;2.00;99.90;;;;;;5008864;28;20338;-74
2022/12/19 08:56:51;;;;;;;60.85;34.22;;;2.00;99.90;;;;;;4999568;28;20294;-76
2022/12/19 08:59:38;;;;;;;60.33;33.58;;;2.00;99.90;;;;;;5007028;28;20238;-75
2022/12/19 09:02:23;;;;;;;59.58;34.72;;;2.00;99.90;;;;;;5009071;28;20226;-75
2022/12/19 09:05:09;;;;;;;63.13;34.05;;;2.10;99.90;;;;;;5010631;28;20297;-75
2022/12/19 09:07:54;;;;;;;59.15;33.78;;;2.10;99.90;;;;;;4996733;28;20210;-75
2022/12/19 09:10:40;;;;;;;64.32;35.17;;;2.10;99.90;;;;;;5006085;28;20261;-75
2022/12/19 09:13:26;;;;;;;65.07;38.10;;;2.10;99.90;;;;;;5009343;28;20202;-75
2022/12/19 09:16:15;;;;;;;72.20;37.03;;;2.10;99.90;;;;;;5006380;28;20233;-76
2022/12/19 09:19:01;;;;;;;63.65;36.17;;;2.10;99.90;;;;;;5012262;28;20218;-75
2022/12/19 09:21:47;;;;;;;66.25;37.25;;;2.10;99.90;;;;;;5010697;28;20237;-75
2022/12/19 09:24:32;;;;;;;58.03;33.35;;;2.20;99.90;;;;;;5013607;28;20198;-75
2022/12/19 09:27:18;;;;;;;55.42;35.00;;;2.20;99.90;;;;;;5007881;28;20199;-75
2022/12/19 09:30:04;;;;;;;55.22;35.42;;;2.30;99.90;;;;;;5011993;28;20755;-75
2022/12/19 09:32:51;;;;;;;70.43;36.53;;;2.30;99.90;;;;;;5009745;28;20645;-75
2022/12/19 09:35:37;;;;;;;58.75;35.33;;;2.30;99.90;;;;;;5005767;28;20206;-74
2022/12/19 09:38:24;;;;;;;65.93;34.90;;;2.30;99.90;;;;;;5008445;28;20257;-72
2022/12/19 09:41:31;;;;;;;73.45;36.33;;;2.30;99.90;;;;;;5005385;28;20554;-73
2022/12/19 09:44:28;;;;;;;56.20;33.45;;;2.30;99.90;;;;;;5011525;28;20210;-72
2022/12/19 09:47:17;;;;;;;56.92;33.40;;;2.30;99.90;;;;;;5007891;28;20210;-72
2022/12/19 09:50:22;;;;;;;56.60;35.13;;;2.40;99.90;;;;;;5010797;28;20210;-75
2022/12/19 09:53:19;;;;;;;59.10;31.63;;;2.40;99.90;;;;;;5009788;28;21945;-73
2022/12/19 09:56:10;;;;;;;59.53;33.25;;;2.40;99.90;;;;;;5006703;28;20211;-75
2022/12/19 09:59:01;;;;;;;57.65;33.20;;;2.50;99.90;;;;;;5005925;28;20209;-75
2022/12/19 10:01:56;;;;;;;56.95;33.53;;;2.50;99.90;;;;;;5024856;28;20688;-75
2022/12/19 10:04:47;;;;;;;91.22;48.25;;;2.40;99.90;;;;;;5006124;28;20563;-75
2022/12/19 10:07:34;;;;;;;92.50;46.88;;;2.50;99.90;;;;;;5007920;28;20280;-75
2022/12/19 10:10:27;;;;;;;86.15;46.65;;;2.60;99.90;;;;;;5014478;28;20218;-75
2022/12/19 10:13:26;;;;;;;82.72;45.10;;;2.50;99.90;;;;;;5024258;28;20226;-75
2022/12/19 10:16:18;;;;;;;70.85;38.42;;;2.50;99.90;;;;;;5008011;28;20798;-75
2022/12/19 10:19:07;;;;;;;67.50;36.78;;;2.50;99.90;;;;;;5002857;28;20218;-75
2022/12/19 10:22:00;;;;;;;60.78;34.15;;;2.60;99.90;;;;;;5003587;28;20230;-76
2022/12/19 10:25:00;;;;;;;65.10;33.55;;;2.70;99.90;;;;;;5012982;28;20573;-74
2022/12/19 10:27:50;;;;;;;62.17;33.88;;;2.70;99.90;;;;;;5003703;28;20207;-75
2022/12/19 10:30:42;;;;;;;60.92;34.17;;;2.70;99.90;;;;;;4994790;28;20334;-75
2022/12/19 10:33:35;;;;;;;62.03;34.97;;;2.80;99.90;;;;;;4995465;28;20255;-75
2022/12/19 10:36:23;;;;;;;59.83;33.95;;;2.90;99.90;;;;;;5009985;28;20615;-75
2022/12/19 10:39:16;;;;;;;64.15;34.80;;;2.90;99.90;;;;;;5014114;28;20337;-75
2022/12/19 10:42:13;;;;;;;60.72;33.08;;;3.00;99.90;;;;;;5008355;28;20297;-75
2022/12/19 10:45:01;;;;;;;56.65;33.33;;;3.10;99.90;;;;;;5012770;28;20258;-74
2022/12/19 10:47:47;;;;;;;55.55;32.58;;;3.00;99.90;;;;;;4994138;28;20207;-75
2022/12/19 10:50:33;;;;;;;55.85;32.75;;;3.00;99.90;;;;;;4996513;28;20704;-75
2022/12/19 10:53:28;;;;;;;50.53;29.55;;;3.00;99.90;;;;;;5014919;28;20353;-75
2022/12/19 10:56:21;;;;;;;57.65;32.38;;;3.10;99.90;;;;;;5007207;28;20202;-75
2022/12/19 10:59:17;;;;;;;57.70;33.20;;;3.10;99.90;;;;;;5005246;28;20687;-75
2022/12/19 11:02:22;;;;;;;54.47;30.75;;;3.10;99.90;;;;;;5013006;28;20695;-75
2022/12/19 11:05:23;;;;;;;56.78;32.30;;;3.10;99.90;;;;;;5010761;28;20214;-75
2022/12/19 11:08:16;;;;;;;54.25;31.42;;;3.10;99.90;;;;;;5004147;28;20333;-75
2022/12/19 11:11:13;;;;;;;53.08;30.77;;;3.10;99.90;;;;;;5008106;28;20198;-75
2022/12/19 11:13:58;;;;;;;45.22;30.10;;;3.10;99.90;;;;;;5012015;28;20214;-75
2022/12/19 11:16:45;;;;;;;52.13;30.75;;;2.90;99.90;;;;;;4997986;28;20346;-75
2022/12/19 11:19:33;;;;;;;53.10;31.38;;;3.00;99.90;;;;;;4993221;28;20202;-75
2022/12/19 11:22:22;;;;;;;59.95;32.03;;;2.90;99.90;;;;;;5013810;28;20739;-74
2022/12/19 11:25:16;;;;;;;56.97;33.10;;;3.00;99.90;;;;;;5010137;28;20280;-74
2022/12/19 11:28:04;;;;;;;63.03;31.75;;;3.00;99.90;;;;;;4992970;28;20243;-75
2022/12/19 11:30:57;;;;;;;54.90;32.63;;;3.10;99.90;;;;;;4992792;28;20279;-74
2022/12/19 11:33:46;;;;;;;52.60;30.92;;;3.10;99.90;;;;;;4993161;28;20206;-74
2022/12/19 11:36:37;;;;;;;61.47;34.65;;;3.10;99.90;;;;;;5009080;28;20306;-75
2022/12/19 11:39:31;;;;;;;57.30;32.70;;;3.10;99.90;;;;;;5012877;28;20253;-75
2022/12/19 11:42:24;;;;;;;50.08;30.77;;;3.20;99.90;;;;;;5011079;28;20266;-74
2022/12/19 11:45:16;;;;;;;57.95;33.53;;;3.20;99.90;;;;;;5008615;28;20781;-74
2022/12/19 11:48:06;;;;;;;52.47;31.13;;;3.20;99.90;;;;;;5001011;28;20214;-75
2022/12/19 11:51:01;;;;;;;57.50;33.63;;;3.20;99.90;;;;;;4999597;28;20566;-75
2022/12/19 11:53:55;;;;;;;61.42;30.88;;;3.30;99.90;;;;;;5011117;28;20206;-74
2022/12/19 11:56:40;;;;;;;55.38;32.30;;;3.30;99.90;;;;;;4997109;28;20219;-74
2022/12/19 11:59:31;;;;;;;54.88;32.28;;;3.30;99.90;;;;;;4992366;28;20206;-74
2022/12/19 12:02:39;;;;;;;50.83;30.90;;;3.20;99.90;;;;;;4992556;28;20234;-74
2022/12/19 12:05:43;;;;;;;52.88;31.40;;;3.30;99.90;;;;;;4998755;28;20312;-74
2022/12/19 12:08:49;;;;;;;54.08;29.52;;;3.30;99.90;;;;;;5006217;28;20544;-75
2022/12/19 12:11:43;;;;;;;53.85;31.38;;;3.30;99.90;;;;;;5011669;28;20230;-74
2022/12/19 12:14:39;;;;;;;56.13;31.50;;;3.40;99.90;;;;;;4992275;28;20257;-74
2022/12/19 12:17:39;;;;;;;50.63;31.10;;;3.40;99.90;;;;;;5002181;28;20225;-74
2022/12/19 12:20:34;;;;;;;64.28;35.20;;;3.40;99.90;;;;;;5011607;28;20682;-74
2022/12/19 12:23:26;;;;;;;60.03;34.38;;;3.50;99.90;;;;;;4991885;28;20627;-74
2022/12/19 12:26:24;;;;;;;60.13;34.70;;;3.50;99.90;;;;;;4994297;28;20206;-74
2022/12/19 12:29:18;;;;;;;59.90;37.08;;;3.50;99.90;;;;;;4992229;28;20211;-74
2022/12/19 12:32:21;;;;;;;61.65;36.53;;;3.60;99.90;;;;;;4992254;28;20214;-74
2022/12/19 12:35:19;;;;;;;61.90;35.47;;;3.60;99.90;;;;;;4998389;28;20336;-75
2022/12/19 12:38:36;;;;;;;65.10;35.60;;;3.60;99.90;;;;;;5004468;28;20695;-75
2022/12/19 12:44:40;;;;;;;57.42;35.35;;;3.60;99.90;;;;;;5006156;28;20202;-74
2022/12/19 12:47:28;;;;;;;53.60;32.63;;;3.60;99.90;;;;;;4992254;28;20202;-75
2022/12/19 12:50:17;;;;;;;62.80;34.83;;;3.60;99.90;;;;;;4998876;28;20265;-75
2022/12/19 12:53:07;;;;;;;63.97;36.85;;;3.50;99.90;;;;;;5015077;28;20230;-75
2022/12/19 12:55:56;;;;;;;54.95;34.25;;;3.50;99.90;;;;;;5007026;28;20241;-75
2022/12/19 12:58:59;;;;;;;59.70;32.83;;;3.60;99.90;;;;;;5012488;28;20209;-76
2022/12/19 13:01:50;;;;;;;61.70;34.00;;;3.60;99.90;;;;;;5015222;28;20237;-75
2022/12/19 13:04:42;;;;;;;58.03;33.30;;;3.60;99.90;;;;;;5010313;28;20597;-75
2022/12/19 13:07:34;;;;;;;56.03;31.60;;;3.70;99.90;;;;;;5010659;28;20290;-77
2022/12/19 13:10:24;;;;;;;55.10;32.13;;;3.70;99.90;;;;;;5011785;28;20250;-74
2022/12/19 13:13:15;;;;;;;52.65;32.00;;;3.80;99.90;;;;;;5012638;28;20230;-76
2022/12/19 13:16:40;;;;;;;60.67;33.65;;;3.80;99.90;;;;;;5008785;28;20680;-75
2022/12/19 13:19:28;;;;;;;50.05;31.33;;;3.90;99.90;;;;;;5010596;28;20293;-74
2022/12/19 13:22:22;;;;;;;40.78;28.15;;;3.90;99.90;;;;;;5012453;28;20316;-76
2022/12/19 13:25:53;;;;;;;49.20;29.45;;;3.90;99.90;;;;;;5003175;28;20207;-75
2022/12/19 13:28:42;;;;;;;43.58;26.92;;;3.90;99.90;;;;;;4993618;28;20297;-77
2022/12/19 13:31:35;;;;;;;49.45;26.38;;;3.80;99.90;;;;;;5015630;28;20222;-75
2022/12/19 13:34:21;;;;;;;44.28;27.13;;;3.80;99.90;;;;;;5007622;28;20274;-76
2022/12/19 13:37:32;;;;;;;43.75;25.38;;;3.70;99.90;;;;;;5001604;28;20202;-73
2022/12/19 13:40:30;;;;;;;35.78;24.15;;;3.70;99.90;;;;;;5012364;28;20210;-74
2022/12/19 13:46:37;;;;;;;48.40;27.23;;;3.60;99.90;;;;;;5006059;28;20617;-74
2022/12/19 13:49:29;;;;;;;38.30;22.60;;;3.60;99.90;;;;;;5009836;28;20292;-74
2022/12/19 13:52:14;;;;;;;42.83;23.98;;;3.60;99.90;;;;;;5013481;28;20642;-74
2022/12/19 13:55:00;;;;;;;42.88;23.55;;;3.60;99.90;;;;;;5006912;28;20210;-74
2022/12/19 13:57:48;;;;;;;35.08;21.35;;;3.60;99.90;;;;;;5008118;28;20590;-74
2022/12/19 14:00:36;;;;;;;36.30;23.45;;;3.60;99.90;;;;;;5012268;28;20198;-74
2022/12/19 14:03:32;;;;;;;38.65;21.90;;;3.60;99.90;;;;;;5011189;28;20576;-74
2022/12/19 14:06:21;;;;;;;44.78;25.58;;;3.60;99.90;;;;;;5008285;28;20695;-74
2022/12/19 14:09:09;;;;;;;37.05;22.58;;;3.50;99.90;;;;;;5014371;28;20210;-74
2022/12/19 14:11:58;;;;;;;39.63;25.88;;;3.40;99.90;;;;;;5012282;28;20222;-74
2022/12/19 14:17:54;;;;;;;40.28;25.67;;;3.40;99.90;;;;;;5009479;28;20282;-74
2022/12/19 14:20:41;;;;;;;42.53;25.73;;;3.30;99.90;;;;;;5011766;28;20202;-74
2022/12/19 14:23:27;;;;;;;37.20;25.08;;;3.30;99.90;;;;;;5010872;28;20226;-74
2022/12/19 14:26:18;;;;;;;42.50;25.35;;;3.30;99.90;;;;;;5006929;28;20218;-74
2022/12/19 14:29:07;;;;;;;38.15;24.88;;;3.30;99.90;;;;;;5007872;28;20304;-74
2022/12/19 14:31:54;;;;;;;37.67;23.13;;;3.30;99.90;;;;;;5008879;28;20226;-74
2022/12/19 14:34:40;;;;;;;37.40;24.85;;;3.30;99.90;;;;;;5007300;28;20289;-74
2022/12/19 14:37:30;;;;;;;43.72;26.33;;;3.20;99.90;;;;;;4999788;28;20210;-74
2022/12/19 14:40:23;;;;;;;41.80;26.48;;;3.10;99.90;;;;;;5005894;28;20206;-74
2022/12/19 14:46:28;;;;;;;38.95;26.02;;;3.00;99.90;;;;;;4998587;28;20201;-74
2022/12/19 14:49:25;;;;;;;38.88;24.88;;;3.10;99.90;;;;;;5008114;28;20738;-74